Finlandia — OJPP — position and weather

sailwx.info

Track history (hours):
 
Tides and Currents Weather Stations Pressure Air Temp Water Temp Dewpoint Dewpoint Depression Visibility Wind Speed Wind Dir Waves Ship Positions

Finlandia

Last reported at 2014-Aug-20 04:33 UTC. Time now 2014-Aug-20 04:51 UTC.
Position N 60°09' E 024°55'.

Length 175 m; draft 7 m.

Type: Passenger vessel. MMSI: 230628000.

Date/timePositionNaut miles runAvg speedWind from/ knotsBaromVisibWave heightAir tempDewpointWater temp
2014-Aug-20 04:33N 60°09' E 024°55'0 0.0
2014-Aug-20 03:33N 60°09' E 024°55'0 0.0
2014-Aug-20 02:33N 60°09' E 024°55'0 0.0
2014-Aug-20 01:33N 60°09' E 024°55'0 0.0
2014-Aug-20 00:24N 60°09' E 024°55'0 0.0
2014-Aug-19 22:18N 60°09' E 024°55'0 0.0
2014-Aug-19 21:09N 60°09' E 024°55'0 0.0
2014-Aug-19 20:21N 60°09' E 024°55'0 0.0
2014-Aug-19 19:24N 60°09' E 024°55'0 0.3
2014-Aug-19 18:31N 60°09' E 024°55'10 1.8
2014-Aug-19 13:10N 59°59' E 024°54'915.6
2014-Aug-19 12:33N 60°09' E 024°54'1 0.6
2014-Aug-19 11:31N 60°09' E 024°55'11 2.1
2014-Aug-19 06:10N 59°58' E 024°54'1118.1
2014-Aug-19 05:34N 60°09' E 024°54'1 0.6
2014-Aug-19 04:33N 60°09' E 024°55'0 0.0
2014-Aug-19 03:33N 60°09' E 024°55'0 0.0
2014-Aug-19 02:12N 60°09' E 024°55'0 0.0
2014-Aug-19 01:33N 60°09' E 024°55'0 0.0
2014-Aug-19 00:24N 60°09' E 024°55'0 0.0
2014-Aug-18 22:18N 60°09' E 024°55'0 0.0
2014-Aug-18 20:27N 60°09' E 024°55'0 0.0
2014-Aug-18 19:15N 60°09' E 024°55'0 0.5
2014-Aug-18 18:31N 60°09' E 024°55'12 2.4
2014-Aug-18 13:21N 59°57' E 024°53'1215.4
2014-Aug-18 12:33N 60°09' E 024°55'1 0.6
2014-Aug-18 11:32N 60°09' E 024°55'12 2.1
2014-Aug-18 06:10N 59°58' E 024°54'1118.1
2014-Aug-18 05:33N 60°09' E 024°54'1 0.7
2014-Aug-18 04:33N 60°09' E 024°55'0 0.0
2014-Aug-18 03:33N 60°09' E 024°55'0 0.0
2014-Aug-18 02:30N 60°09' E 024°55'0 0.0
2014-Aug-18 01:27N 60°09' E 024°55'0 0.0
2014-Aug-18 00:30N 60°09' E 024°55'0 0.0
2014-Aug-17 18:33N 60°09' E 024°55'10 1.9
2014-Aug-17 13:11N 59°59' E 024°54'1015.6
2014-Aug-17 12:33N 60°09' E 024°54'1 0.6
2014-Aug-17 11:32N 60°09' E 024°55'15 2.9
2014-Aug-17 06:24N 59°55' E 024°51'1417.3
2014-Aug-17 05:33N 60°09' E 024°55'0 0.4
2014-Aug-17 04:32N 60°09' E 024°55'0 0.0
2014-Aug-17 03:32N 60°09' E 024°55'0 0.0
2014-Aug-17 02:32N 60°09' E 024°55'0 0.0
2014-Aug-17 01:26N 60°09' E 024°55'0 0.0
2014-Aug-17 00:29N 60°09' E 024°55'0 0.0
2014-Aug-16 23:29N 60°09' E 024°55'0 0.0
2014-Aug-16 22:26N 60°09' E 024°55'0 0.0
2014-Aug-16 21:05N 60°09' E 024°55'0 0.0
2014-Aug-16 20:26N 60°09' E 024°55'0 0.0
2014-Aug-16 19:08N 60°09' E 024°55'0 0.7
2014-Aug-16 18:32N 60°09' E 024°55'11 2.1
2014-Aug-16 13:15N 59°58' E 024°54'1115.7
2014-Aug-16 12:34N 60°09' E 024°54'1 0.7
2014-Aug-16 11:31N 60°09' E 024°55'11 2.1
2014-Aug-16 06:10N 59°58' E 024°54'1117.9
2014-Aug-16 05:33N 60°09' E 024°54'1 0.7
2014-Aug-16 04:32N 60°09' E 024°55'0 0.0
2014-Aug-16 03:32N 60°09' E 024°55'0 0.0
2014-Aug-16 02:32N 60°09' E 024°55'0 0.0
2014-Aug-16 01:14N 60°09' E 024°55'0 0.0
2014-Aug-16 00:20N 60°09' E 024°55'0 0.0
2014-Aug-15 23:20N 60°09' E 024°55'0 0.0
2014-Aug-15 22:32N 60°09' E 024°55'0 0.0
2014-Aug-15 21:28N 60°09' E 024°55'0 0.0
2014-Aug-15 20:23N 60°09' E 024°55'0 0.0
2014-Aug-15 19:20N 60°09' E 024°55'0 0.0
2014-Aug-15 18:33N 60°09' E 024°55'10 1.8
2014-Aug-15 13:09N 59°60' E 024°54'915.4
2014-Aug-15 12:33N 60°09' E 024°54'1 0.7
2014-Aug-15 11:33N 60°09' E 024°55'11 2.0
2014-Aug-15 06:06N 59°59' E 024°53'1018.6
2014-Aug-15 05:33N 60°09' E 024°54'1 0.7
2014-Aug-15 04:31N 60°09' E 024°55'0 0.0
2014-Aug-15 03:31N 60°09' E 024°55'0 0.0
2014-Aug-15 02:31N 60°09' E 024°55'0 0.0
2014-Aug-14 23:22N 60°09' E 024°55'0 0.0
2014-Aug-14 22:16N 60°09' E 024°55'0 0.0
2014-Aug-14 21:25N 60°09' E 024°55'0 0.0
2014-Aug-14 20:31N 60°09' E 024°55'0 0.0
2014-Aug-14 19:28N 60°09' E 024°55'1 1.1
2014-Aug-14 18:33N 60°08' E 024°54'11 2.0
2014-Aug-14 13:21N 59°58' E 024°54'1114.4
2014-Aug-14 12:34N 60°09' E 024°55'0 0.1
2014-Aug-14 11:33N 60°09' E 024°55'4117.4
2014-Aug-14 09:11N 59°28' E 024°47'29 9.6
2014-Aug-14 06:12N 59°57' E 024°53'1218.4
2014-Aug-14 05:33N 60°09' E 024°54'1 0.7
2014-Aug-14 04:33N 60°09' E 024°55'0 0.0
2014-Aug-14 03:33N 60°09' E 024°55'0 0.0
2014-Aug-14 02:33N 60°09' E 024°55'0 0.0
2014-Aug-14 01:33N 60°09' E 024°55'0 0.0
2014-Aug-14 00:30N 60°09' E 024°55'0 0.0
2014-Aug-13 23:33N 60°09' E 024°55'0 0.0
2014-Aug-13 22:24N 60°09' E 024°55'0 0.0
2014-Aug-13 21:24N 60°09' E 024°55'0 0.0
2014-Aug-13 20:30N 60°09' E 024°55'0 0.0
2014-Aug-13 19:30N 60°09' E 024°55'0 0.4
2014-Aug-13 18:33N 60°09' E 024°55'11 2.1
2014-Aug-13 13:18N 59°58' E 024°54'1114.7
2014-Aug-13 12:33N 60°09' E 024°55'0 0.5
2014-Aug-13 11:33N 60°09' E 024°55'0 0.1
2014-Aug-13 05:33N 60°09' E 024°55'0 0.5
2014-Aug-13 04:31N 60°09' E 024°55'0 0.0
2014-Aug-13 03:31N 60°09' E 024°55'0 0.0
2014-Aug-13 02:31N 60°09' E 024°55'0 0.0
2014-Aug-13 01:31N 60°09' E 024°55'0 0.0
2014-Aug-13 00:22N 60°09' E 024°55'0 0.0
2014-Aug-12 23:25N 60°09' E 024°55'0 0.0
2014-Aug-12 22:19N 60°09' E 024°55'0 0.0
2014-Aug-12 21:31N 60°09' E 024°55'0 0.0
2014-Aug-12 20:31N 60°09' E 024°55'0 0.2
2014-Aug-12 18:33N 60°09' E 024°55'26 5.9
2014-Aug-12 14:10N 59°43' E 024°46'1417.9
2014-Aug-12 13:24N 59°56' E 024°53'1214.7
2014-Aug-12 12:33N 60°09' E 024°55'0 0.3
2014-Aug-12 11:33N 60°09' E 024°55'11 2.0
2014-Aug-12 06:09N 59°58' E 024°54'1118.0
2014-Aug-12 05:33N 60°09' E 024°55'0 0.5
2014-Aug-12 04:31N 60°09' E 024°55'0 0.0
2014-Aug-12 03:31N 60°09' E 024°55'0 0.0
2014-Aug-12 02:31N 60°09' E 024°55'0 0.0
2014-Aug-12 00:31N 60°09' E 024°55'0 0.0
2014-Aug-11 23:31N 60°09' E 024°55'0 0.0
2014-Aug-11 22:28N 60°09' E 024°55'0 0.0
2014-Aug-11 21:28N 60°09' E 024°55'0 0.0
2014-Aug-11 20:22N 60°09' E 024°55'0 0.0
2014-Aug-11 19:31N 60°09' E 024°55'0 0.5
2014-Aug-11 18:34N 60°09' E 024°55'15 2.9
2014-Aug-11 13:34N 59°54' E 024°52'1514.9
2014-Aug-11 12:33N 60°09' E 024°55'0 0.0
2014-Aug-11 11:34N 60°09' E 024°55'11 2.1
2014-Aug-11 06:04N 59°58' E 024°53'1019.4
2014-Aug-11 05:33N 60°08' E 024°54'1 1.5
2014-Aug-11 04:33N 60°09' E 024°55'0 0.0
2014-Aug-11 03:33N 60°09' E 024°55'0 0.0
2014-Aug-11 02:33N 60°09' E 024°55'0 0.0
2014-Aug-11 01:33N 60°09' E 024°55'0 0.0
2014-Aug-11 00:24N 60°09' E 024°55'0 0.0
2014-Aug-10 23:33N 60°09' E 024°55'0 0.0
2014-Aug-10 22:33N 60°09' E 024°55'0 0.0
2014-Aug-10 21:33N 60°09' E 024°55'0 0.0
2014-Aug-10 20:30N 60°09' E 024°55'0 0.0
2014-Aug-10 19:30N 60°09' E 024°55'0 0.4
2014-Aug-10 18:33N 60°09' E 024°55'4213.1
2014-Aug-10 15:19N 59°27' E 024°46'1114.7
2014-Aug-10 14:33N 59°38' E 024°40'1717.4
2014-Aug-10 13:33N 59°54' E 024°52'1515.2
2014-Aug-10 12:34N 60°09' E 024°55'0 0.2
2014-Aug-10 11:31N 60°09' E 024°55'1413.7
2014-Aug-10 10:31N 59°56' E 024°52'11 2.2
2014-Aug-10 05:34N 60°06' E 024°54'  
Track history (hours):
 
Tides and Currents Weather Stations Pressure Air Temp Water Temp Dewpoint Dewpoint Depression Visibility Wind Speed Wind Dir Waves Ship Positions

Finlandia

Last reported at 2014-Aug-20 04:33 UTC. Time now 2014-Aug-20 04:51 UTC.
Position N 60°09' E 024°55'.

Length 175 m; draft 7 m.

Type: Passenger vessel. MMSI: 230628000.

Date/timePositionNaut miles runAvg speedWind from/ knotsBaromVisibWave heightAir tempDewpointWater temp
2014-Aug-20 04:33N 60°09' E 024°55'0 0.0
2014-Aug-20 03:33N 60°09' E 024°55'0 0.0
2014-Aug-20 02:33N 60°09' E 024°55'0 0.0
2014-Aug-20 01:33N 60°09' E 024°55'0 0.0
2014-Aug-20 00:24N 60°09' E 024°55'0 0.0
2014-Aug-19 22:18N 60°09' E 024°55'0 0.0
2014-Aug-19 21:09N 60°09' E 024°55'0 0.0
2014-Aug-19 20:21N 60°09' E 024°55'0 0.0
2014-Aug-19 19:24N 60°09' E 024°55'0 0.3
2014-Aug-19 18:31N 60°09' E 024°55'10 1.8
2014-Aug-19 13:10N 59°59' E 024°54'915.6
2014-Aug-19 12:33N 60°09' E 024°54'1 0.6
2014-Aug-19 11:31N 60°09' E 024°55'11 2.1
2014-Aug-19 06:10N 59°58' E 024°54'1118.1
2014-Aug-19 05:34N 60°09' E 024°54'1 0.6
2014-Aug-19 04:33N 60°09' E 024°55'0 0.0
2014-Aug-19 03:33N 60°09' E 024°55'0 0.0
2014-Aug-19 02:12N 60°09' E 024°55'0 0.0
2014-Aug-19 01:33N 60°09' E 024°55'0 0.0
2014-Aug-19 00:24N 60°09' E 024°55'0 0.0
2014-Aug-18 22:18N 60°09' E 024°55'0 0.0
2014-Aug-18 20:27N 60°09' E 024°55'0 0.0
2014-Aug-18 19:15N 60°09' E 024°55'0 0.5
2014-Aug-18 18:31N 60°09' E 024°55'12 2.4
2014-Aug-18 13:21N 59°57' E 024°53'1215.4
2014-Aug-18 12:33N 60°09' E 024°55'1 0.6
2014-Aug-18 11:32N 60°09' E 024°55'12 2.1
2014-Aug-18 06:10N 59°58' E 024°54'1118.1
2014-Aug-18 05:33N 60°09' E 024°54'1 0.7
2014-Aug-18 04:33N 60°09' E 024°55'0 0.0
2014-Aug-18 03:33N 60°09' E 024°55'0 0.0
2014-Aug-18 02:30N 60°09' E 024°55'0 0.0
2014-Aug-18 01:27N 60°09' E 024°55'0 0.0
2014-Aug-18 00:30N 60°09' E 024°55'0 0.0
2014-Aug-17 18:33N 60°09' E 024°55'10 1.9
2014-Aug-17 13:11N 59°59' E 024°54'1015.6
2014-Aug-17 12:33N 60°09' E 024°54'1 0.6
2014-Aug-17 11:32N 60°09' E 024°55'15 2.9
2014-Aug-17 06:24N 59°55' E 024°51'1417.3
2014-Aug-17 05:33N 60°09' E 024°55'0 0.4
2014-Aug-17 04:32N 60°09' E 024°55'0 0.0
2014-Aug-17 03:32N 60°09' E 024°55'0 0.0
2014-Aug-17 02:32N 60°09' E 024°55'0 0.0
2014-Aug-17 01:26N 60°09' E 024°55'0 0.0
2014-Aug-17 00:29N 60°09' E 024°55'0 0.0
2014-Aug-16 23:29N 60°09' E 024°55'0 0.0
2014-Aug-16 22:26N 60°09' E 024°55'0 0.0
2014-Aug-16 21:05N 60°09' E 024°55'0 0.0
2014-Aug-16 20:26N 60°09' E 024°55'0 0.0
2014-Aug-16 19:08N 60°09' E 024°55'0 0.7
2014-Aug-16 18:32N 60°09' E 024°55'11 2.1
2014-Aug-16 13:15N 59°58' E 024°54'1115.7
2014-Aug-16 12:34N 60°09' E 024°54'1 0.7
2014-Aug-16 11:31N 60°09' E 024°55'11 2.1
2014-Aug-16 06:10N 59°58' E 024°54'1117.9
2014-Aug-16 05:33N 60°09' E 024°54'1 0.7
2014-Aug-16 04:32N 60°09' E 024°55'0 0.0
2014-Aug-16 03:32N 60°09' E 024°55'0 0.0
2014-Aug-16 02:32N 60°09' E 024°55'0 0.0
2014-Aug-16 01:14N 60°09' E 024°55'0 0.0
2014-Aug-16 00:20N 60°09' E 024°55'0 0.0
2014-Aug-15 23:20N 60°09' E 024°55'0 0.0
2014-Aug-15 22:32N 60°09' E 024°55'0 0.0
2014-Aug-15 21:28N 60°09' E 024°55'0 0.0
2014-Aug-15 20:23N 60°09' E 024°55'0 0.0
2014-Aug-15 19:20N 60°09' E 024°55'0 0.0
2014-Aug-15 18:33N 60°09' E 024°55'10 1.8
2014-Aug-15 13:09N 59°60' E 024°54'915.4
2014-Aug-15 12:33N 60°09' E 024°54'1 0.7
2014-Aug-15 11:33N 60°09' E 024°55'11 2.0
2014-Aug-15 06:06N 59°59' E 024°53'1018.6
2014-Aug-15 05:33N 60°09' E 024°54'1 0.7
2014-Aug-15 04:31N 60°09' E 024°55'0 0.0
2014-Aug-15 03:31N 60°09' E 024°55'0 0.0
2014-Aug-15 02:31N 60°09' E 024°55'0 0.0
2014-Aug-14 23:22N 60°09' E 024°55'0 0.0
2014-Aug-14 22:16N 60°09' E 024°55'0 0.0
2014-Aug-14 21:25N 60°09' E 024°55'0 0.0
2014-Aug-14 20:31N 60°09' E 024°55'0 0.0
2014-Aug-14 19:28N 60°09' E 024°55'1 1.1
2014-Aug-14 18:33N 60°08' E 024°54'11 2.0
2014-Aug-14 13:21N 59°58' E 024°54'1114.4
2014-Aug-14 12:34N 60°09' E 024°55'0 0.1
2014-Aug-14 11:33N 60°09' E 024°55'4117.4
2014-Aug-14 09:11N 59°28' E 024°47'29 9.6
2014-Aug-14 06:12N 59°57' E 024°53'1218.4
2014-Aug-14 05:33N 60°09' E 024°54'1 0.7
2014-Aug-14 04:33N 60°09' E 024°55'0 0.0
2014-Aug-14 03:33N 60°09' E 024°55'0 0.0
2014-Aug-14 02:33N 60°09' E 024°55'0 0.0
2014-Aug-14 01:33N 60°09' E 024°55'0 0.0
2014-Aug-14 00:30N 60°09' E 024°55'0 0.0
2014-Aug-13 23:33N 60°09' E 024°55'0 0.0
2014-Aug-13 22:24N 60°09' E 024°55'0 0.0
2014-Aug-13 21:24N 60°09' E 024°55'0 0.0
2014-Aug-13 20:30N 60°09' E 024°55'0 0.0
2014-Aug-13 19:30N 60°09' E 024°55'0 0.4
2014-Aug-13 18:33N 60°09' E 024°55'11 2.1
2014-Aug-13 13:18N 59°58' E 024°54'1114.7
2014-Aug-13 12:33N 60°09' E 024°55'0 0.5
2014-Aug-13 11:33N 60°09' E 024°55'0 0.1
2014-Aug-13 05:33N 60°09' E 024°55'0 0.5
2014-Aug-13 04:31N 60°09' E 024°55'0 0.0
2014-Aug-13 03:31N 60°09' E 024°55'0 0.0
2014-Aug-13 02:31N 60°09' E 024°55'0 0.0
2014-Aug-13 01:31N 60°09' E 024°55'0 0.0
2014-Aug-13 00:22N 60°09' E 024°55'0 0.0
2014-Aug-12 23:25N 60°09' E 024°55'0 0.0
2014-Aug-12 22:19N 60°09' E 024°55'0 0.0
2014-Aug-12 21:31N 60°09' E 024°55'0 0.0
2014-Aug-12 20:31N 60°09' E 024°55'0 0.2
2014-Aug-12 18:33N 60°09' E 024°55'26 5.9
2014-Aug-12 14:10N 59°43' E 024°46'1417.9
2014-Aug-12 13:24N 59°56' E 024°53'1214.7
2014-Aug-12 12:33N 60°09' E 024°55'0 0.3
2014-Aug-12 11:33N 60°09' E 024°55'11 2.0
2014-Aug-12 06:09N 59°58' E 024°54'1118.0
2014-Aug-12 05:33N 60°09' E 024°55'0 0.5
2014-Aug-12 04:31N 60°09' E 024°55'0 0.0
2014-Aug-12 03:31N 60°09' E 024°55'0 0.0
2014-Aug-12 02:31N 60°09' E 024°55'0 0.0
2014-Aug-12 00:31N 60°09' E 024°55'0 0.0
2014-Aug-11 23:31N 60°09' E 024°55'0 0.0
2014-Aug-11 22:28N 60°09' E 024°55'0 0.0
2014-Aug-11 21:28N 60°09' E 024°55'0 0.0
2014-Aug-11 20:22N 60°09' E 024°55'0 0.0
2014-Aug-11 19:31N 60°09' E 024°55'0 0.5
2014-Aug-11 18:34N 60°09' E 024°55'15 2.9
2014-Aug-11 13:34N 59°54' E 024°52'1514.9
2014-Aug-11 12:33N 60°09' E 024°55'0 0.0
2014-Aug-11 11:34N 60°09' E 024°55'11 2.1
2014-Aug-11 06:04N 59°58' E 024°53'1019.4
2014-Aug-11 05:33N 60°08' E 024°54'1 1.5
2014-Aug-11 04:33N 60°09' E 024°55'0 0.0
2014-Aug-11 03:33N 60°09' E 024°55'0 0.0
2014-Aug-11 02:33N 60°09' E 024°55'0 0.0
2014-Aug-11 01:33N 60°09' E 024°55'0 0.0
2014-Aug-11 00:24N 60°09' E 024°55'0 0.0
2014-Aug-10 23:33N 60°09' E 024°55'0 0.0
2014-Aug-10 22:33N 60°09' E 024°55'0 0.0
2014-Aug-10 21:33N 60°09' E 024°55'0 0.0
2014-Aug-10 20:30N 60°09' E 024°55'0 0.0
2014-Aug-10 19:30N 60°09' E 024°55'0 0.4
2014-Aug-10 18:33N 60°09' E 024°55'4213.1
2014-Aug-10 15:19N 59°27' E 024°46'1114.7
2014-Aug-10 14:33N 59°38' E 024°40'1717.4
2014-Aug-10 13:33N 59°54' E 024°52'1515.2
2014-Aug-10 12:34N 60°09' E 024°55'0 0.2
2014-Aug-10 11:31N 60°09' E 024°55'1413.7
2014-Aug-10 10:31N 59°56' E 024°52'11 2.2
2014-Aug-10 05:34N 60°06' E 024°54'  

Dump ship's entire track history